Time;durP1;ratioP1;P1;durP2;ratioP2;P2;SDS_P1;SDS_P2;PMS_P1;PMS_P2;Temp;Humidity;BMP_temperature;BMP_pressure;BME280_temperature;BME280_humidity;BME280_pressure;Samples;Min_cycle;Max_cycle;Signal;HPM_P1;HPM_P2
2022/07/15 00:00:31;;;;;;;6.70;1.50;;;12.60;99.90;;;;;;5089013;28;20119;-66
2022/07/15 00:02:58;;;;;;;4.60;1.10;;;12.50;99.90;;;;;;5089961;28;20043;-68
2022/07/15 00:05:23;;;;;;;5.78;1.23;;;12.50;99.90;;;;;;5089531;28;20074;-66
2022/07/15 00:07:49;;;;;;;8.77;1.50;;;12.50;99.90;;;;;;5089620;28;20478;-66
2022/07/15 00:10:15;;;;;;;5.55;1.30;;;12.50;99.90;;;;;;5090529;28;20044;-66
2022/07/15 00:12:52;;;;;;;4.22;1.40;;;12.50;99.90;;;;;;5090460;28;20048;-67
2022/07/15 00:15:21;;;;;;;5.10;1.17;;;12.40;99.90;;;;;;5089438;28;20063;-65
2022/07/15 00:17:47;;;;;;;4.75;1.10;;;12.40;99.90;;;;;;5089713;28;20046;-67
2022/07/15 00:20:14;;;;;;;5.03;1.40;;;12.50;99.90;;;;;;5088646;28;20461;-66
2022/07/15 00:22:41;;;;;;;5.40;1.88;;;12.50;99.90;;;;;;5088564;28;20035;-67
2022/07/15 00:25:08;;;;;;;4.80;1.50;;;12.50;99.90;;;;;;5091350;28;20065;-67
2022/07/15 00:27:34;;;;;;;5.22;1.60;;;12.50;99.90;;;;;;5090285;28;20074;-66
2022/07/15 00:30:00;;;;;;;3.58;1.27;;;12.50;99.90;;;;;;5091992;28;20457;-66
2022/07/15 00:32:26;;;;;;;6.05;1.50;;;12.60;99.90;;;;;;5089743;28;20040;-67
2022/07/15 00:34:51;;;;;;;5.97;1.75;;;12.50;99.90;;;;;;5090060;28;20056;-67
2022/07/15 00:37:17;;;;;;;9.25;1.70;;;12.50;99.90;;;;;;5089171;28;20036;-67
2022/07/15 00:39:43;;;;;;;6.63;1.67;;;12.50;99.90;;;;;;5122056;27;20036;-65
2022/07/15 00:42:43;;;;;;;6.30;1.60;;;12.50;99.90;;;;;;5089984;28;20060;-66
2022/07/15 00:44:58;;;;;;;5.10;1.25;;;12.60;99.90;;;;;;5089771;28;20460;-66
2022/07/15 00:47:24;;;;;;;7.07;1.77;;;12.60;99.90;;;;;;5089585;28;20031;-66
2022/07/15 00:49:49;;;;;;;5.50;1.30;;;12.60;99.90;;;;;;5089602;28;20495;-67
2022/07/15 00:52:16;;;;;;;4.82;1.60;;;12.60;99.90;;;;;;5090662;28;20043;-66
2022/07/15 00:54:44;;;;;;;4.63;1.40;;;12.70;99.90;;;;;;5086844;28;20108;-66
2022/07/15 00:57:10;;;;;;;5.25;1.23;;;12.70;99.90;;;;;;5090775;28;20050;-67
2022/07/15 00:59:37;;;;;;;5.18;1.40;;;12.70;99.90;;;;;;5089465;28;20051;-67
2022/07/15 01:02:02;;;;;;;5.13;1.48;;;12.70;99.90;;;;;;5089425;28;20036;-67
2022/07/15 01:04:30;;;;;;;6.05;1.70;;;12.80;99.90;;;;;;5088711;28;20055;-67
2022/07/15 01:06:56;;;;;;;6.07;1.67;;;12.80;99.90;;;;;;5089311;28;20119;-66
2022/07/15 01:09:21;;;;;;;5.95;2.05;;;12.80;99.90;;;;;;5089761;28;20522;-67
2022/07/15 01:11:47;;;;;;;5.55;1.90;;;12.80;99.90;;;;;;5087081;28;20441;-67
2022/07/15 01:14:13;;;;;;;5.57;1.80;;;12.80;99.90;;;;;;5087831;28;20040;-66
2022/07/15 01:16:39;;;;;;;6.70;1.98;;;12.80;99.90;;;;;;5089353;28;20074;-66
2022/07/15 01:19:04;;;;;;;6.57;2.10;;;12.80;99.90;;;;;;5088309;28;20047;-66
2022/07/15 01:21:30;;;;;;;6.93;2.15;;;12.80;99.90;;;;;;5088228;28;20043;-67
2022/07/15 01:23:56;;;;;;;7.15;1.90;;;12.90;99.90;;;;;;5122158;27;20036;-66
2022/07/15 01:26:21;;;;;;;9.73;2.05;;;12.90;99.90;;;;;;5089544;28;20449;-65
2022/07/15 01:28:47;;;;;;;7.82;2.03;;;12.90;99.90;;;;;;5122110;28;20444;-66
2022/07/15 01:31:13;;;;;;;7.15;1.95;;;12.90;99.90;;;;;;5088179;28;20052;-66
2022/07/15 01:33:39;;;;;;;6.93;1.80;;;12.90;99.90;;;;;;5088880;28;20566;-67
2022/07/15 01:36:05;;;;;;;5.30;1.73;;;13.00;99.90;;;;;;5071395;28;20044;-67
2022/07/15 01:38:31;;;;;;;5.35;1.90;;;13.00;99.90;;;;;;5120515;28;20486;-66
2022/07/15 01:40:57;;;;;;;6.97;1.77;;;13.00;99.90;;;;;;5089365;28;20035;-67
2022/07/15 01:43:23;;;;;;;7.50;1.73;;;13.00;99.90;;;;;;5082814;28;20047;-66
2022/07/15 01:45:49;;;;;;;4.65;1.38;;;13.00;99.90;;;;;;5085101;28;20054;-67
2022/07/15 01:51:00;;;;;;;7.53;1.70;;;12.90;99.90;;;;;;5088875;28;20040;-66
2022/07/15 01:53:28;;;;;;;6.55;1.70;;;13.00;99.90;;;;;;5089024;28;20236;-66
2022/07/15 01:55:53;;;;;;;6.47;1.40;;;13.10;99.90;;;;;;5088119;28;20079;-67
2022/07/15 01:58:20;;;;;;;5.63;1.98;;;13.10;99.90;;;;;;5092193;28;20046;-67
2022/07/15 02:00:46;;;;;;;6.57;1.95;;;13.10;99.90;;;;;;5088779;28;20040;-67
2022/07/15 02:03:11;;;;;;;6.97;2.10;;;13.10;99.90;;;;;;5087551;28;20036;-64
2022/07/15 02:05:38;;;;;;;6.45;1.88;;;13.10;99.90;;;;;;5088570;28;20391;-64
2022/07/15 02:08:04;;;;;;;2.78;1.40;;;13.20;99.90;;;;;;5089976;28;20035;-66
2022/07/15 02:10:39;;;;;;;5.65;1.75;;;13.20;99.90;;;;;;5088573;28;20043;-66
2022/07/15 02:13:09;;;;;;;6.65;2.08;;;13.20;99.90;;;;;;5087370;28;20044;-67
2022/07/15 02:15:36;;;;;;;6.70;2.33;;;13.20;99.90;;;;;;5119239;28;20040;-67
2022/07/15 02:18:03;;;;;;;5.57;1.77;;;13.10;99.90;;;;;;5088761;28;20044;-68
2022/07/15 02:20:29;;;;;;;6.10;1.90;;;13.10;99.90;;;;;;5089776;28;20807;-67
2022/07/15 02:22:58;;;;;;;6.03;1.80;;;13.20;99.90;;;;;;5088546;28;20115;-66
2022/07/15 02:25:32;;;;;;;7.43;2.10;;;13.20;99.90;;;;;;5088822;28;20039;-66
2022/07/15 02:28:00;;;;;;;7.72;2.28;;;13.10;99.90;;;;;;5089449;28;20043;-66
2022/07/15 02:30:29;;;;;;;5.03;1.60;;;13.10;99.90;;;;;;5092554;28;20048;-67
2022/07/15 02:32:55;;;;;;;7.55;3.08;;;13.10;99.90;;;;;;5091195;28;20048;-67
2022/07/15 02:35:22;;;;;;;5.88;1.80;;;13.10;99.90;;;;;;5092011;28;20064;-66
2022/07/15 02:37:48;;;;;;;6.53;1.80;;;13.00;99.90;;;;;;5090060;28;20154;-65
2022/07/15 02:40:13;;;;;;;6.15;1.67;;;13.00;99.90;;;;;;5090456;28;20110;-67
2022/07/15 02:42:39;;;;;;;4.68;1.65;;;12.90;99.90;;;;;;5072645;28;20119;-65
2022/07/15 02:45:06;;;;;;;4.72;1.50;;;12.90;99.90;;;;;;5089814;28;20047;-67
2022/07/15 02:47:31;;;;;;;6.60;2.00;;;12.80;99.90;;;;;;5091862;28;20483;-66
2022/07/15 02:49:57;;;;;;;3.75;1.98;;;12.80;99.90;;;;;;5092760;28;20050;-66
2022/07/15 02:52:23;;;;;;;6.57;1.65;;;12.70;99.90;;;;;;5093216;28;20039;-66
2022/07/15 02:54:49;;;;;;;6.32;1.90;;;12.70;99.90;;;;;;5091852;28;20055;-67
2022/07/15 02:57:15;;;;;;;6.63;2.40;;;12.70;99.90;;;;;;5090354;28;20116;-66
2022/07/15 02:59:41;;;;;;;4.57;1.88;;;12.60;99.90;;;;;;5090506;28;20123;-65
2022/07/15 03:02:06;;;;;;;6.57;2.15;;;12.60;99.90;;;;;;5091104;28;20104;-66
2022/07/15 03:04:32;;;;;;;5.70;2.03;;;12.50;99.90;;;;;;5092602;28;20035;-67
2022/07/15 03:06:57;;;;;;;5.75;1.90;;;12.40;99.90;;;;;;5091607;28;20394;-65
2022/07/15 03:09:23;;;;;;;4.63;1.90;;;12.40;99.90;;;;;;5092228;28;20043;-68
2022/07/15 03:11:49;;;;;;;7.85;1.75;;;12.40;99.90;;;;;;5092187;28;20145;-67
2022/07/15 03:14:14;;;;;;;10.07;2.13;;;12.30;99.90;;;;;;5090385;28;20044;-68
2022/07/15 03:16:40;;;;;;;7.40;2.05;;;12.30;99.90;;;;;;5124164;27;20040;-65
2022/07/15 03:19:07;;;;;;;5.47;2.00;;;12.30;99.90;;;;;;5090927;28;20040;-66
2022/07/15 03:21:32;;;;;;;4.82;1.70;;;12.20;99.90;;;;;;5091356;28;20402;-66
2022/07/15 03:23:58;;;;;;;6.43;1.80;;;12.20;99.90;;;;;;5092270;28;20040;-67
2022/07/15 03:26:24;;;;;;;7.78;1.80;;;12.20;99.90;;;;;;5074959;28;20040;-67
2022/07/15 03:28:49;;;;;;;9.23;1.98;;;12.20;99.90;;;;;;5089958;28;20459;-66
2022/07/15 03:31:15;;;;;;;4.63;1.70;;;12.10;99.90;;;;;;5088903;28;20086;-67
2022/07/15 03:33:41;;;;;;;6.35;2.15;;;12.10;99.90;;;;;;5089212;28;20079;-68
2022/07/15 03:36:06;;;;;;;4.53;1.75;;;12.10;99.90;;;;;;5089007;28;20064;-66
2022/07/15 03:38:32;;;;;;;7.00;1.90;;;12.10;99.90;;;;;;5089702;28;20078;-65
2022/07/15 03:40:58;;;;;;;4.18;1.70;;;12.00;99.90;;;;;;5090803;28;20040;-67
2022/07/15 03:43:26;;;;;;;3.42;1.40;;;12.00;99.90;;;;;;5089888;28;20478;-67
2022/07/15 03:45:53;;;;;;;2.72;1.50;;;12.00;99.90;;;;;;5088615;28;20056;-67
2022/07/15 03:48:19;;;;;;;4.53;1.52;;;12.00;99.90;;;;;;5090757;28;20097;-67
2022/07/15 03:50:44;;;;;;;2.85;1.55;;;11.90;99.90;;;;;;5090403;28;20044;-66
2022/07/15 03:53:10;;;;;;;4.80;1.90;;;11.90;99.90;;;;;;5090774;28;20066;-66
2022/07/15 03:55:37;;;;;;;7.78;2.10;;;11.90;99.90;;;;;;5090418;28;20032;-66
2022/07/15 03:58:04;;;;;;;6.97;1.90;;;11.90;99.90;;;;;;5089386;28;20546;-67
2022/07/15 04:00:29;;;;;;;6.00;1.98;;;11.80;99.90;;;;;;5072366;28;20044;-66
2022/07/15 04:02:55;;;;;;;4.57;1.90;;;11.80;99.90;;;;;;5088940;28;20043;-67
2022/07/15 04:05:21;;;;;;;5.90;1.95;;;11.80;99.90;;;;;;5090310;28;20089;-66
2022/07/15 04:07:47;;;;;;;5.60;1.80;;;11.80;99.90;;;;;;5090374;28;20116;-66
2022/07/15 04:10:13;;;;;;;6.38;2.20;;;11.80;99.90;;;;;;5090188;28;20048;-66
2022/07/15 04:12:39;;;;;;;6.43;1.90;;;11.90;99.90;;;;;;5089986;28;20047;-66
2022/07/15 04:15:05;;;;;;;6.68;2.00;;;12.00;99.90;;;;;;5090095;28;20079;-67
2022/07/15 04:17:31;;;;;;;2.20;1.50;;;12.00;99.90;;;;;;5092261;28;20764;-67
2022/07/15 04:19:56;;;;;;;3.83;1.65;;;12.00;99.90;;;;;;5091259;28;20046;-66
2022/07/15 04:22:22;;;;;;;6.38;1.88;;;12.10;99.90;;;;;;5089706;28;20036;-67
2022/07/15 04:24:48;;;;;;;7.18;2.28;;;12.10;99.90;;;;;;5089963;28;20032;-67
2022/07/15 04:27:13;;;;;;;4.45;1.80;;;12.20;99.90;;;;;;5089667;28;20040;-67
2022/07/15 04:29:39;;;;;;;6.20;1.92;;;12.20;99.90;;;;;;5090264;28;20386;-67
2022/07/15 04:32:05;;;;;;;11.32;2.40;;;12.30;99.90;;;;;;5089373;28;20049;-66
2022/07/15 04:34:30;;;;;;;6.57;2.25;;;12.30;99.90;;;;;;5088651;28;20518;-66
2022/07/15 04:36:56;;;;;;;4.72;1.67;;;12.40;99.90;;;;;;5090072;28;20094;-65
2022/07/15 04:39:21;;;;;;;4.97;2.05;;;12.40;99.90;;;;;;5087812;28;20052;-67
2022/07/15 04:41:50;;;;;;;9.27;1.92;;;12.50;99.90;;;;;;5089996;28;20499;-68
2022/07/15 04:44:16;;;;;;;7.20;2.10;;;12.60;99.90;;;;;;5089642;28;20047;-67
2022/07/15 04:46:41;;;;;;;6.03;2.13;;;12.60;99.90;;;;;;5090944;28;20032;-65
2022/07/15 04:51:51;;;;;;;7.30;1.80;;;12.80;99.90;;;;;;5089142;28;20055;-67
2022/07/15 04:54:16;;;;;;;6.05;1.77;;;12.90;99.90;;;;;;5088047;28;20036;-68
2022/07/15 04:56:42;;;;;;;6.53;1.80;;;12.90;99.90;;;;;;5088861;28;20486;-67
2022/07/15 04:59:07;;;;;;;8.05;2.00;;;13.00;99.90;;;;;;5091331;28;20048;-67
2022/07/15 05:01:33;;;;;;;7.10;2.35;;;13.10;99.90;;;;;;5089296;28;20035;-67
2022/07/15 05:03:59;;;;;;;8.15;2.47;;;13.10;99.90;;;;;;5088247;28;20114;-65
2022/07/15 05:06:24;;;;;;;4.43;1.85;;;13.10;99.90;;;;;;5089849;28;20046;-67
2022/07/15 05:08:50;;;;;;;7.15;2.50;;;13.20;99.90;;;;;;5089119;28;21719;-66
2022/07/15 05:11:16;;;;;;;8.68;1.90;;;13.10;99.90;;;;;;5087857;28;20039;-67
2022/07/15 05:13:41;;;;;;;8.23;2.38;;;13.20;99.90;;;;;;5089150;28;20104;-67
2022/07/15 05:16:07;;;;;;;5.70;2.00;;;13.20;99.90;;;;;;5088797;28;20036;-67
2022/07/15 05:18:32;;;;;;;6.28;1.80;;;13.20;99.90;;;;;;5088899;28;20052;-67
2022/07/15 05:20:58;;;;;;;9.32;2.30;;;13.10;99.90;;;;;;5085791;28;20097;-68
2022/07/15 05:23:24;;;;;;;5.47;1.80;;;13.10;99.90;;;;;;5088778;28;20540;-66
2022/07/15 05:25:49;;;;;;;7.68;1.88;;;13.10;99.90;;;;;;5085276;28;20136;-66
2022/07/15 05:28:15;;;;;;;6.40;1.90;;;13.10;99.90;;;;;;5071566;28;20105;-66
2022/07/15 05:30:41;;;;;;;6.18;1.90;;;13.10;99.90;;;;;;5086292;28;20044;-66
2022/07/15 05:33:07;;;;;;;6.00;2.13;;;13.10;99.90;;;;;;5089145;28;20104;-66
2022/07/15 05:35:32;;;;;;;6.38;1.80;;;13.10;99.90;;;;;;5086874;28;20052;-66
2022/07/15 05:37:58;;;;;;;4.43;1.58;;;13.10;99.90;;;;;;5087974;28;20052;-65
2022/07/15 05:40:24;;;;;;;2.72;1.40;;;13.20;99.90;;;;;;5090368;28;20043;-66
2022/07/15 05:42:49;;;;;;;5.28;1.50;;;13.10;99.90;;;;;;5088749;28;20036;-66
2022/07/15 05:45:15;;;;;;;3.60;1.40;;;13.20;99.90;;;;;;5123278;28;20466;-66
2022/07/15 05:47:49;;;;;;;5.13;1.67;;;13.30;99.90;;;;;;5088874;28;20051;-65
2022/07/15 05:50:16;;;;;;;3.97;1.20;;;13.40;99.90;;;;;;5085468;28;20040;-67
2022/07/15 05:52:41;;;;;;;6.35;1.20;;;13.70;99.90;;;;;;5087266;28;20051;-68
2022/07/15 05:55:07;;;;;;;5.43;1.35;;;13.80;99.90;;;;;;5088808;28;20402;-65
2022/07/15 05:57:33;;;;;;;3.00;1.15;;;14.10;99.90;;;;;;5087829;28;20040;-67
2022/07/15 05:59:58;;;;;;;2.60;1.08;;;14.20;99.90;;;;;;5087619;28;20501;-66
2022/07/15 06:02:24;;;;;;;3.30;1.00;;;14.40;99.90;;;;;;5087664;28;20052;-65
2022/07/15 06:04:50;;;;;;;2.70;0.70;;;14.60;99.90;;;;;;5074968;28;20094;-66
2022/07/15 06:07:15;;;;;;;4.15;1.00;;;14.70;99.90;;;;;;5088518;28;20037;-67
2022/07/15 06:09:41;;;;;;;3.17;1.00;;;14.90;99.90;;;;;;5086511;28;20094;-66
2022/07/15 06:12:09;;;;;;;3.92;1.00;;;15.10;99.90;;;;;;5092759;28;20047;-65
2022/07/15 06:14:34;;;;;;;4.10;0.90;;;15.20;99.90;;;;;;5092243;28;20040;-67
2022/07/15 06:17:00;;;;;;;3.58;0.90;;;15.20;99.90;;;;;;5092270;28;20425;-67
2022/07/15 06:19:26;;;;;;;3.05;0.80;;;15.30;99.90;;;;;;5090754;28;20040;-65
2022/07/15 06:21:52;;;;;;;4.20;0.60;;;15.30;99.90;;;;;;5092584;28;20039;-67
2022/07/15 06:24:19;;;;;;;1.33;0.60;;;15.40;99.90;;;;;;5091045;28;20042;-66
2022/07/15 06:26:44;;;;;;;1.95;0.65;;;15.30;99.90;;;;;;5092048;28;20072;-67
2022/07/15 06:29:10;;;;;;;2.90;0.63;;;15.50;99.90;;;;;;5075778;28;20443;-67
2022/07/15 06:31:36;;;;;;;2.28;0.50;;;15.70;99.90;;;;;;5091802;28;20129;-66
2022/07/15 06:34:01;;;;;;;1.15;0.45;;;15.80;99.90;;;;;;5091642;28;20062;-67
2022/07/15 06:36:28;;;;;;;3.25;0.40;;;16.00;99.90;;;;;;5091458;28;20056;-65
2022/07/15 06:38:54;;;;;;;4.90;0.68;;;16.10;99.90;;;;;;5089031;28;20044;-66
2022/07/15 06:41:19;;;;;;;4.40;0.90;;;16.20;99.90;;;;;;5091216;28;20418;-66
2022/07/15 06:43:45;;;;;;;1.25;0.40;;;16.40;99.90;;;;;;5091954;28;20119;-67
2022/07/15 06:46:12;;;;;;;1.17;0.30;;;16.60;99.90;;;;;;5122127;27;20040;-68
2022/07/15 06:48:39;;;;;;;1.70;0.40;;;16.80;99.90;;;;;;5124792;27;20048;-67
2022/07/15 06:51:05;;;;;;;1.95;0.60;;;16.90;99.90;;;;;;5090486;28;20040;-66
2022/07/15 06:53:31;;;;;;;1.15;0.40;;;17.10;99.90;;;;;;5091322;28;20040;-66
2022/07/15 06:55:56;;;;;;;2.88;0.40;;;17.30;99.90;;;;;;5091856;28;20040;-67
2022/07/15 06:58:22;;;;;;;2.22;0.30;;;17.30;99.90;;;;;;5074293;28;20109;-66
2022/07/15 07:00:48;;;;;;;3.65;0.80;;;17.30;99.90;;;;;;5091147;28;20042;-66
2022/07/15 07:03:13;;;;;;;1.52;0.30;;;17.30;99.90;;;;;;5092754;28;20375;-67
2022/07/15 07:05:39;;;;;;;0.68;0.20;;;17.50;99.90;;;;;;5091489;28;20047;-66
2022/07/15 07:08:05;;;;;;;1.98;0.40;;;17.50;99.90;;;;;;5088170;28;20361;-66
2022/07/15 07:10:31;;;;;;;2.50;0.30;;;17.50;99.90;;;;;;5090073;28;20181;-66
2022/07/15 07:12:56;;;;;;;0.55;0.25;;;17.60;99.90;;;;;;5090914;28;20119;-66
2022/07/15 07:15:23;;;;;;;4.30;0.40;;;17.80;99.90;;;;;;5091891;28;20043;-65
2022/07/15 07:17:51;;;;;;;1.15;0.40;;;17.90;99.90;;;;;;5091506;28;20036;-66
2022/07/15 07:20:17;;;;;;;2.00;0.45;;;18.10;99.90;;;;;;5091116;28;20044;-67
2022/07/15 07:22:42;;;;;;;3.58;0.30;;;18.10;99.90;;;;;;5091086;28;20043;-66
2022/07/15 07:25:08;;;;;;;2.10;0.40;;;18.20;99.90;;;;;;5091477;28;20063;-65
2022/07/15 07:27:34;;;;;;;1.65;0.35;;;18.20;99.90;;;;;;5091213;28;20479;-67
2022/07/15 07:30:02;;;;;;;1.80;0.45;;;18.30;99.90;;;;;;5090611;28;20055;-68
2022/07/15 07:32:28;;;;;;;1.60;0.38;;;18.30;99.90;;;;;;5090669;28;20478;-66
2022/07/15 07:34:54;;;;;;;1.25;0.30;;;18.30;99.90;;;;;;5073578;28;20127;-68
2022/07/15 07:37:20;;;;;;;0.93;0.30;;;18.40;99.90;;;;;;5090917;28;20145;-66
2022/07/15 07:39:45;;;;;;;1.13;0.30;;;18.50;99.90;;;;;;5090412;28;20040;-67
2022/07/15 07:42:11;;;;;;;1.35;0.40;;;18.70;99.90;;;;;;5091111;28;20040;-66
2022/07/15 07:44:37;;;;;;;1.17;0.50;;;18.70;99.90;;;;;;5073889;28;20105;-67
2022/07/15 07:47:03;;;;;;;2.80;0.30;;;18.90;99.90;;;;;;5090859;28;20036;-67
2022/07/15 07:49:28;;;;;;;0.38;0.20;;;18.90;99.90;;;;;;5090460;28;20039;-66
2022/07/15 07:51:54;;;;;;;0.85;0.25;;;19.00;99.90;;;;;;5090659;28;20048;-65
2022/07/15 07:54:20;;;;;;;1.65;0.20;;;19.10;99.90;;;;;;5090420;28;20040;-67
2022/07/15 07:56:45;;;;;;;2.60;0.65;;;19.30;99.90;;;;;;5091724;28;20256;-68
2022/07/15 07:59:11;;;;;;;1.45;0.40;;;19.20;99.90;;;;;;5090532;28;20044;-66
2022/07/15 08:01:37;;;;;;;1.77;0.30;;;19.40;99.90;;;;;;5091401;28;20036;-66
2022/07/15 08:04:03;;;;;;;0.95;0.30;;;19.20;99.80;;;;;;5106367;28;20059;-68
2022/07/15 08:06:29;;;;;;;1.40;0.50;;;19.30;99.90;;;;;;5072859;28;20047;-66
2022/07/15 08:08:55;;;;;;;1.02;0.30;;;19.20;99.90;;;;;;5089871;28;20036;-67
2022/07/15 08:11:21;;;;;;;0.63;0.20;;;19.20;99.90;;;;;;5091507;28;20051;-66
2022/07/15 08:13:47;;;;;;;2.00;0.30;;;18.70;99.50;;;;;;5091138;28;20069;-65
2022/07/15 08:16:12;;;;;;;1.38;0.38;;;18.70;99.90;;;;;;5090385;28;20071;-66
2022/07/15 08:18:38;;;;;;;3.10;0.40;;;19.00;99.90;;;;;;5090571;28;20032;-66
2022/07/15 08:21:05;;;;;;;0.80;0.22;;;18.80;99.20;;;;;;5090264;28;20792;-67
2022/07/15 08:23:32;;;;;;;0.52;0.20;;;18.90;99.20;;;;;;5089905;28;20115;-68
2022/07/15 08:25:58;;;;;;;1.65;0.40;;;19.00;99.40;;;;;;5089106;28;20185;-66
2022/07/15 08:28:24;;;;;;;0.68;0.30;;;19.30;99.20;;;;;;5122001;27;20042;-66
2022/07/15 08:30:50;;;;;;;2.17;0.20;;;19.40;99.10;;;;;;5090910;28;20032;-66
2022/07/15 08:33:16;;;;;;;2.95;0.35;;;19.10;98.80;;;;;;5089798;28;20036;-64
2022/07/15 08:35:43;;;;;;;1.17;0.40;;;18.80;99.30;;;;;;5090932;28;20040;-67
2022/07/15 08:38:10;;;;;;;0.77;0.22;;;18.50;99.70;;;;;;5089375;28;20097;-68
2022/07/15 08:40:38;;;;;;;1.75;0.30;;;18.20;99.90;;;;;;5089954;28;20529;-67
2022/07/15 08:43:11;;;;;;;0.93;0.40;;;18.30;99.90;;;;;;5072612;28;20048;-66
2022/07/15 08:45:39;;;;;;;0.68;0.20;;;18.80;99.90;;;;;;5089548;28;20048;-65
2022/07/15 08:48:06;;;;;;;0.65;0.40;;;19.10;99.90;;;;;;5089055;28;20048;-66
2022/07/15 08:50:33;;;;;;;3.38;0.50;;;19.30;99.10;;;;;;5089583;28;20044;-66
2022/07/15 08:52:58;;;;;;;0.60;0.40;;;19.40;98.70;;;;;;5089584;28;20513;-66
2022/07/15 08:55:25;;;;;;;1.05;0.30;;;19.60;99.60;;;;;;5089594;28;20036;-64
2022/07/15 08:57:52;;;;;;;0.85;0.15;;;19.60;99.00;;;;;;5084726;28;20039;-65
2022/07/15 09:00:28;;;;;;;0.77;0.20;;;19.50;98.80;;;;;;5090215;28;20108;-67
2022/07/15 09:02:55;;;;;;;0.93;0.20;;;19.30;98.30;;;;;;5088936;28;20062;-66
2022/07/15 09:05:27;;;;;;;1.33;0.30;;;19.10;98.10;;;;;;5089090;28;20035;-66
2022/07/15 09:08:15;;;;;;;0.30;0.30;;;18.90;98.60;;;;;;5088638;28;20516;-66
2022/07/15 09:10:53;;;;;;;1.45;0.47;;;18.90;98.80;;;;;;5089172;28;20119;-67
2022/07/15 09:13:32;;;;;;;2.35;0.20;;;18.80;99.20;;;;;;5089493;28;20044;-66
2022/07/15 09:16:09;;;;;;;1.13;0.13;;;18.70;98.80;;;;;;5089282;28;20051;-67
2022/07/15 09:18:40;;;;;;;0.80;0.20;;;18.60;99.20;;;;;;5089076;28;20039;-66
2022/07/15 09:21:19;;;;;;;2.45;0.32;;;18.50;99.30;;;;;;5088987;28;20047;-66
2022/07/15 09:23:45;;;;;;;0.70;0.30;;;18.70;99.50;;;;;;5072001;28;20074;-65
2022/07/15 09:26:26;;;;;;;1.10;0.30;;;19.20;99.70;;;;;;5090282;28;20035;-64
2022/07/15 09:28:53;;;;;;;1.63;1.00;;;19.80;99.50;;;;;;5089039;28;20040;-66
2022/07/15 09:34:23;;;;;;;1.02;0.20;;;20.50;97.90;;;;;;5088925;28;20086;-66
2022/07/15 09:36:54;;;;;;;1.25;0.30;;;20.20;97.60;;;;;;5123475;28;20119;-66
2022/07/15 09:39:21;;;;;;;1.50;0.30;;;20.30;97.40;;;;;;5093141;28;20036;-66
2022/07/15 09:41:47;;;;;;;0.20;0.20;;;20.70;97.80;;;;;;5092977;28;20032;-66
2022/07/15 09:44:16;;;;;;;2.08;0.38;;;21.00;97.50;;;;;;5093378;28;20040;-66
2022/07/15 09:46:41;;;;;;;1.70;0.30;;;21.00;96.90;;;;;;5076420;28;20052;-66
2022/07/15 09:49:08;;;;;;;0.70;0.30;;;21.00;96.40;;;;;;5093390;28;20036;-66
2022/07/15 09:52:07;;;;;;;1.48;0.20;;;20.80;96.60;;;;;;5093926;28;20028;-67
2022/07/15 09:54:44;;;;;;;0.95;0.20;;;20.50;95.50;;;;;;5035091;28;20053;-66
2022/07/15 09:57:19;;;;;;;1.20;0.40;;;20.10;96.10;;;;;;5034964;28;20053;-66
2022/07/15 09:59:50;;;;;;;2.17;0.43;;;19.80;96.90;;;;;;5034815;28;20048;-65
2022/07/15 10:02:16;;;;;;;2.23;0.70;;;19.50;97.50;;;;;;5021732;28;20041;-66
2022/07/15 10:04:42;;;;;;;1.30;0.45;;;19.10;98.10;;;;;;5014972;28;20376;-67
2022/07/15 10:07:11;;;;;;;3.65;1.00;;;19.00;98.60;;;;;;4997676;28;20045;-66
2022/07/15 10:09:37;;;;;;;1.55;0.70;;;19.00;98.90;;;;;;5048193;28;20045;-66
2022/07/15 10:12:14;;;;;;;1.20;0.57;;;18.90;98.70;;;;;;5014556;28;20045;-67
2022/07/15 10:14:58;;;;;;;1.27;0.50;;;18.90;98.70;;;;;;4998707;28;20103;-66
2022/07/15 10:17:57;;;;;;;2.13;0.40;;;18.90;98.80;;;;;;5014176;28;20045;-67
2022/07/15 10:20:50;;;;;;;1.30;0.50;;;19.10;99.00;;;;;;5014669;28;20399;-66
2022/07/15 10:23:31;;;;;;;2.28;0.38;;;19.40;99.60;;;;;;5014807;28;20045;-66
2022/07/15 10:26:21;;;;;;;0.90;0.30;;;19.50;99.10;;;;;;5047464;28;20110;-67
2022/07/15 10:28:54;;;;;;;1.77;0.30;;;19.30;98.80;;;;;;5014493;28;20041;-65
2022/07/15 10:31:29;;;;;;;0.70;0.30;;;19.30;98.60;;;;;;5105413;28;20114;-65
2022/07/15 10:34:04;;;;;;;1.58;0.40;;;19.20;98.40;;;;;;5091761;28;20170;-66
2022/07/15 10:36:49;;;;;;;1.65;0.70;;;19.00;98.40;;;;;;5123827;27;20044;-66
2022/07/15 10:39:24;;;;;;;3.50;0.70;;;18.80;99.10;;;;;;5091066;28;20040;-66
2022/07/15 10:42:02;;;;;;;1.58;0.77;;;18.70;99.40;;;;;;5091003;28;20123;-66
2022/07/15 10:45:02;;;;;;;2.05;0.60;;;18.60;99.50;;;;;;5091565;28;20383;-66
2022/07/15 10:47:28;;;;;;;2.65;0.70;;;18.60;99.90;;;;;;5090486;28;20516;-65
2022/07/15 10:49:54;;;;;;;1.77;0.57;;;18.70;99.90;;;;;;5091271;28;20037;-66
2022/07/15 10:52:38;;;;;;;1.70;0.60;;;18.80;99.50;;;;;;5073122;28;20505;-67
2022/07/15 10:55:05;;;;;;;1.30;0.50;;;18.90;99.20;;;;;;5091725;28;20040;-66
2022/07/15 10:57:42;;;;;;;1.73;0.55;;;19.00;99.30;;;;;;5075191;28;20727;-67
2022/07/15 11:00:20;;;;;;;0.95;0.65;;;18.90;99.60;;;;;;5091339;28;20410;-66
2022/07/15 11:03:02;;;;;;;3.47;1.02;;;18.80;99.80;;;;;;5091210;28;20119;-66
2022/07/15 11:05:28;;;;;;;1.02;0.50;;;18.80;99.90;;;;;;5094130;28;20072;-67
2022/07/15 11:07:54;;;;;;;2.38;0.60;;;18.90;99.90;;;;;;5088848;28;20063;-68
2022/07/15 11:10:21;;;;;;;1.02;0.60;;;19.10;99.90;;;;;;5090327;28;20401;-65
2022/07/15 11:12:50;;;;;;;1.75;0.50;;;19.50;99.60;;;;;;5090510;28;20052;-66
2022/07/15 11:15:23;;;;;;;0.88;0.50;;;20.00;98.80;;;;;;5086679;28;20097;-66
2022/07/15 11:17:53;;;;;;;4.55;0.60;;;20.40;97.30;;;;;;5084823;28;20383;-66
2022/07/15 11:20:24;;;;;;;1.98;0.43;;;20.70;97.90;;;;;;5092163;28;20390;-66
2022/07/15 11:22:52;;;;;;;4.97;0.47;;;20.80;97.10;;;;;;5079375;28;20081;-67
2022/07/15 11:25:27;;;;;;;2.80;0.60;;;20.50;96.40;;;;;;5091302;28;20088;-66
2022/07/15 11:28:02;;;;;;;2.40;0.60;;;20.50;96.30;;;;;;5088846;28;20032;-68
2022/07/15 11:30:56;;;;;;;2.05;0.70;;;20.80;97.30;;;;;;5073260;28;20035;-65
2022/07/15 11:33:25;;;;;;;4.00;0.57;;;21.10;96.50;;;;;;5089903;28;20055;-68
2022/07/15 11:35:53;;;;;;;1.92;0.40;;;21.20;96.00;;;;;;5090147;28;20141;-67
2022/07/15 11:38:23;;;;;;;2.25;0.85;;;21.30;96.20;;;;;;5124643;27;20030;-67
2022/07/15 11:46:30;;;;;;;3.05;0.40;;;21.00;96.10;;;;;;5120574;27;20036;-67
2022/07/15 11:48:59;;;;;;;1.10;0.50;;;20.80;96.60;;;;;;5090086;28;20040;-67
2022/07/15 11:51:30;;;;;;;2.72;0.60;;;20.40;96.50;;;;;;5090420;28;20104;-68
2022/07/15 11:53:57;;;;;;;1.10;0.40;;;20.20;97.10;;;;;;5091135;28;20040;-67
2022/07/15 11:56:24;;;;;;;2.72;0.43;;;20.40;97.50;;;;;;5087337;28;20105;-67
2022/07/15 11:58:55;;;;;;;2.60;0.50;;;20.70;97.70;;;;;;5090286;28;20123;-68
2022/07/15 12:01:23;;;;;;;1.08;0.50;;;21.10;97.40;;;;;;5087784;28;20173;-66
2022/07/15 12:03:51;;;;;;;1.63;0.52;;;21.40;97.00;;;;;;5072229;28;20121;-66
2022/07/15 12:06:18;;;;;;;1.67;0.40;;;21.50;96.50;;;;;;5089428;28;20556;-68
2022/07/15 12:08:49;;;;;;;3.22;0.60;;;21.30;96.10;;;;;;5089189;28;20044;-66
2022/07/15 12:11:33;;;;;;;3.97;1.15;;;21.00;96.10;;;;;;5121921;27;20051;-66
2022/07/15 12:14:05;;;;;;;1.70;0.32;;;20.70;95.90;;;;;;5089625;28;20055;-68
2022/07/15 12:16:34;;;;;;;3.22;0.32;;;20.40;96.20;;;;;;5090021;28;20059;-67
2022/07/15 12:19:06;;;;;;;2.30;0.40;;;20.40;96.60;;;;;;5088815;28;20055;-66
2022/07/15 12:21:32;;;;;;;1.83;0.40;;;20.50;96.90;;;;;;5090844;28;20031;-66
2022/07/15 12:23:58;;;;;;;1.75;0.40;;;20.40;96.70;;;;;;5089541;28;20038;-65
2022/07/15 12:26:24;;;;;;;1.73;0.45;;;20.40;96.80;;;;;;5089603;28;20110;-66
2022/07/15 12:28:58;;;;;;;3.03;0.50;;;20.40;96.70;;;;;;5090062;28;20205;-66
2022/07/15 12:31:29;;;;;;;1.83;0.45;;;20.20;96.40;;;;;;5089607;28;20049;-66
2022/07/15 12:33:55;;;;;;;2.63;0.40;;;20.20;95.60;;;;;;5072517;28;20055;-66
2022/07/15 12:36:28;;;;;;;3.53;0.40;;;20.30;96.30;;;;;;5089323;28;20441;-67
2022/07/15 12:39:07;;;;;;;1.35;0.40;;;20.10;96.20;;;;;;5089738;28;20436;-66
2022/07/15 12:41:35;;;;;;;3.15;0.45;;;19.90;96.60;;;;;;5085716;28;20054;-67
2022/07/15 12:44:02;;;;;;;2.45;0.50;;;20.00;96.90;;;;;;5089564;28;20486;-66
2022/07/15 12:46:57;;;;;;;1.67;0.40;;;20.10;97.10;;;;;;5088786;28;20084;-67
2022/07/15 12:49:45;;;;;;;0.88;0.30;;;20.10;96.10;;;;;;5088926;28;20044;-67
2022/07/15 12:52:15;;;;;;;2.53;0.85;;;20.10;96.00;;;;;;5087019;28;20133;-68
2022/07/15 12:54:41;;;;;;;0.55;0.30;;;20.00;96.40;;;;;;5089265;28;20375;-66
2022/07/15 12:57:30;;;;;;;1.33;0.50;;;20.00;96.80;;;;;;5088889;28;20173;-66
2022/07/15 13:00:04;;;;;;;2.08;0.40;;;20.30;96.90;;;;;;5123019;27;20372;-65
2022/07/15 13:02:31;;;;;;;0.95;0.30;;;20.70;96.10;;;;;;5089059;28;20440;-66
2022/07/15 13:04:58;;;;;;;4.57;0.32;;;20.70;96.10;;;;;;5072283;28;20056;-64
2022/07/15 13:07:24;;;;;;;1.20;0.25;;;20.90;97.00;;;;;;5089335;28;20044;-65